createdAt,value
2016-03-25T00:00:04.869Z,7.48
2016-03-25T00:01:04.919Z,7.48
2016-03-25T00:02:04.859Z,7.56
2016-03-25T00:03:04.847Z,7.5
2016-03-25T00:04:04.896Z,7.48
2016-03-25T00:05:04.851Z,7.5
2016-03-25T00:06:04.838Z,7.57
2016-03-25T00:07:04.865Z,7.47
2016-03-25T00:08:04.929Z,7.57
2016-03-25T00:09:04.853Z,7.53
2016-03-25T00:10:04.825Z,7.5
2016-03-25T00:11:04.843Z,7.53
2016-03-25T00:12:04.846Z,7.57
2016-03-25T00:13:04.833Z,7.57
2016-03-25T00:14:04.836Z,7.57
2016-03-25T00:15:04.854Z,7.58
2016-03-25T00:16:04.841Z,7.54
2016-03-25T00:17:04.828Z,7.6
2016-03-25T00:18:04.862Z,7.6
2016-03-25T00:19:04.833Z,7.58
2016-03-25T00:20:04.836Z,7.57
2016-03-25T00:21:04.855Z,7.6
2016-03-25T00:22:04.841Z,7.57
2016-03-25T00:23:04.844Z,7.63
2016-03-25T00:24:04.863Z,7.63
2016-03-25T00:25:04.849Z,7.57
2016-03-25T00:26:04.868Z,7.56
2016-03-25T00:27:04.855Z,7.6
2016-03-25T00:28:04.826Z,7.56
2016-03-25T00:29:04.845Z,7.56
2016-03-25T00:30:04.863Z,7.58
2016-03-25T00:31:04.834Z,7.56
2016-03-25T00:32:04.884Z,7.6
2016-03-25T00:33:04.855Z,7.58
2016-03-25T00:34:04.827Z,7.53
2016-03-25T00:35:04.877Z,7.66
2016-03-25T00:36:04.848Z,7.58
2016-03-25T00:37:04.820Z,7.58
2016-03-25T00:38:04.853Z,7.54
2016-03-25T00:39:04.825Z,7.5
2016-03-25T00:40:04.812Z,7.5
2016-03-25T00:41:04.876Z,7.51
2016-03-25T00:42:04.817Z,7.61
2016-03-25T00:43:04.820Z,7.57
2016-03-25T00:44:04.822Z,7.57
2016-03-25T00:45:04.826Z,7.5
2016-03-25T00:46:04.812Z,7.5
2016-03-25T00:47:04.814Z,7.54
2016-03-25T00:48:04.803Z,7.43
2016-03-25T00:49:04.805Z,7.51
2016-03-25T00:50:04.807Z,7.56
2016-03-25T00:51:04.826Z,7.51
2016-03-25T00:52:04.813Z,7.51
2016-03-25T00:53:04.816Z,7.47
2016-03-25T00:54:04.803Z,7.45
2016-03-25T00:55:04.821Z,7.47
2016-03-25T00:56:04.808Z,7.48
2016-03-25T00:57:04.060Z,7.47
2016-03-25T00:58:04.813Z,7.47
2016-03-25T00:59:04.831Z,7.47
2016-03-25T01:00:04.788Z,7.43
2016-03-25T01:01:04.790Z,7.48
2016-03-25T01:02:04.808Z,7.53
2016-03-25T01:03:04.780Z,7.47
2016-03-25T01:04:04.799Z,7.47
2016-03-25T01:05:04.816Z,7.43
2016-03-25T01:06:04.788Z,7.45
2016-03-25T01:07:04.635Z,7.45
2016-03-25T01:08:04.824Z,7.47
2016-03-25T01:09:04.827Z,7.43
2016-03-25T01:10:04.799Z,7.45
2016-03-25T01:11:04.786Z,7.48
2016-03-25T01:12:04.773Z,7.5
2016-03-25T01:13:04.791Z,7.5
2016-03-25T01:14:04.778Z,7.54
2016-03-25T01:15:04.797Z,7.5
2016-03-25T01:16:04.784Z,7.43
2016-03-25T01:17:04.787Z,7.47
2016-03-25T01:18:04.789Z,7.5
2016-03-25T01:19:04.808Z,7.43
2016-03-25T01:20:04.795Z,7.57
2016-03-25T01:21:04.797Z,7.54
2016-03-25T01:22:07.769Z,7.54
2016-03-25T01:23:04.786Z,7.61
2016-03-25T01:24:04.789Z,7.6
2016-03-25T01:25:04.808Z,7.6
2016-03-25T01:26:04.764Z,7.57
2016-03-25T01:27:04.813Z,7.58
2016-03-25T01:28:04.769Z,7.57
2016-03-25T01:29:04.787Z,7.6
2016-03-25T01:30:04.775Z,7.69
2016-03-25T01:31:04.761Z,7.69
2016-03-25T01:32:04.780Z,7.61
2016-03-25T01:33:04.782Z,7.69
2016-03-25T01:34:04.832Z,7.69
2016-03-25T01:35:04.788Z,7.67
2016-03-25T01:36:04.760Z,7.58
2016-03-25T01:37:04.777Z,7.56
2016-03-25T01:38:04.890Z,7.51
2016-03-25T01:39:04.751Z,7.5
2016-03-25T01:40:04.770Z,7.57
2016-03-25T01:41:04.773Z,7.57
2016-03-25T01:42:04.791Z,7.53
2016-03-25T01:43:04.762Z,7.54
2016-03-25T01:44:04.765Z,7.58
2016-03-25T01:45:04.753Z,7.5
2016-03-25T01:46:04.755Z,7.43
2016-03-25T01:47:04.758Z,7.5
2016-03-25T01:48:04.745Z,7.43
2016-03-25T01:49:04.747Z,7.48
2016-03-25T01:50:04.766Z,7.56
2016-03-25T01:51:04.753Z,7.57
2016-03-25T01:52:04.739Z,7.56
2016-03-25T01:53:05.070Z,7.53
2016-03-25T01:54:04.761Z,7.54
2016-03-25T01:55:04.732Z,7.57
2016-03-25T01:56:04.750Z,7.53
2016-03-25T01:57:04.769Z,7.51
2016-03-25T01:58:04.741Z,7.53
2016-03-25T01:59:04.743Z,7.54
2016-03-25T02:00:04.746Z,7.45
2016-03-25T02:01:04.733Z,7.53
2016-03-25T02:02:04.736Z,7.51
2016-03-25T02:03:04.754Z,7.47
2016-03-25T02:04:04.740Z,7.51
2016-03-25T02:05:04.759Z,7.42
2016-03-25T02:06:04.730Z,7.47
2016-03-25T02:07:04.718Z,7.42
2016-03-25T02:08:04.892Z,7.43
2016-03-25T02:09:04.723Z,7.4
2016-03-25T02:10:04.710Z,7.38
2016-03-25T02:11:04.728Z,7.36
2016-03-25T02:12:04.715Z,7.35
2016-03-25T02:13:04.734Z,7.32
2016-03-25T02:14:04.705Z,7.31
2016-03-25T02:15:04.709Z,7.35
2016-03-25T02:16:04.726Z,7.25
2016-03-25T02:17:04.697Z,7.21
2016-03-25T02:18:04.701Z,7.2
2016-03-25T02:19:04.703Z,7.18
2016-03-25T02:20:04.705Z,7.15
2016-03-25T02:21:04.693Z,7.2
2016-03-25T02:22:04.711Z,7.13
2016-03-25T02:23:05.105Z,7.15
2016-03-25T02:24:04.732Z,7.18
2016-03-25T02:25:04.719Z,7.15
2016-03-25T02:26:04.847Z,7.17
2016-03-25T02:27:04.677Z,7.07
2016-03-25T02:28:04.696Z,7.17
2016-03-25T02:29:04.682Z,7.14
2016-03-25T02:30:04.701Z,7.13
2016-03-25T02:31:04.689Z,7.07
2016-03-25T02:32:04.675Z,7.15
2016-03-25T02:33:04.756Z,7.14
2016-03-25T02:34:04.681Z,7.06
2016-03-25T02:35:04.668Z,7
2016-03-25T02:36:04.670Z,7.03
2016-03-25T02:37:04.657Z,7.13
2016-03-25T02:38:04.535Z,7.15
2016-03-25T02:39:04.679Z,7.02
2016-03-25T02:40:04.682Z,7.06
2016-03-25T02:41:04.668Z,7.03
2016-03-25T02:42:04.656Z,7.1
2016-03-25T02:43:04.674Z,6.97
2016-03-25T02:44:04.661Z,7.1
2016-03-25T02:45:04.663Z,7.02
2016-03-25T02:46:04.666Z,6.97
2016-03-25T02:47:04.629Z,6.99
2016-03-25T02:48:04.649Z,6.92
2016-03-25T02:49:04.605Z,6.89
2016-03-25T02:50:04.608Z,6.92
2016-03-25T02:51:04.612Z,6.95
2016-03-25T02:52:04.573Z,6.93
2016-03-25T02:53:04.461Z,6.85
2016-03-25T02:54:04.568Z,6.92
2016-03-25T02:55:04.534Z,6.74
2016-03-25T02:56:04.532Z,6.78
2016-03-25T02:57:04.530Z,6.84
2016-03-25T02:58:04.531Z,6.82
2016-03-25T02:59:04.516Z,6.88
2016-03-25T03:00:04.517Z,6.77
2016-03-25T03:01:04.533Z,6.84
2016-03-25T03:02:04.535Z,6.7
2016-03-25T03:03:04.506Z,6.77
2016-03-25T03:04:04.523Z,6.7
2016-03-25T03:05:04.510Z,6.72
2016-03-25T03:06:04.511Z,6.78
2016-03-25T03:07:04.497Z,6.72
2016-03-25T03:08:04.531Z,6.74
2016-03-25T03:09:04.533Z,6.78
2016-03-25T03:10:04.504Z,6.74
2016-03-25T03:11:04.507Z,6.74
2016-03-25T03:12:04.478Z,6.72
2016-03-25T03:13:04.497Z,6.79
2016-03-25T03:14:04.546Z,6.74
2016-03-25T03:15:04.502Z,6.74
2016-03-25T03:16:04.489Z,6.75
2016-03-25T03:17:04.476Z,6.74
2016-03-25T03:18:04.494Z,6.74
2016-03-25T03:19:04.450Z,6.82
2016-03-25T03:20:04.469Z,6.74
2016-03-25T03:21:04.472Z,6.69
2016-03-25T03:22:04.474Z,6.7
2016-03-25T03:23:04.492Z,6.7
2016-03-25T03:24:04.464Z,6.77
2016-03-25T03:25:04.482Z,6.75
2016-03-25T03:26:04.453Z,6.87
2016-03-25T03:27:04.472Z,6.77
2016-03-25T03:28:04.443Z,6.72
2016-03-25T03:29:04.478Z,6.82
2016-03-25T03:30:04.465Z,6.75
2016-03-25T03:31:04.436Z,6.79
2016-03-25T03:32:04.439Z,6.74
2016-03-25T03:33:04.458Z,6.74
2016-03-25T03:34:04.444Z,6.75
2016-03-25T03:35:04.478Z,6.7
2016-03-25T03:36:04.450Z,6.74
2016-03-25T03:37:04.280Z,6.79
2016-03-25T03:38:04.472Z,6.84
2016-03-25T03:39:04.458Z,6.85
2016-03-25T03:40:04.429Z,6.87
2016-03-25T03:41:04.464Z,6.92
2016-03-25T03:42:04.419Z,6.79
2016-03-25T03:43:04.437Z,6.77
2016-03-25T03:44:04.441Z,6.89
2016-03-25T03:45:04.427Z,6.87
2016-03-25T03:46:04.430Z,6.79
2016-03-25T03:47:04.449Z,6.87
2016-03-25T03:48:04.435Z,6.88
2016-03-25T03:49:04.407Z,6.82
2016-03-25T03:50:04.440Z,6.79
2016-03-25T03:51:04.443Z,6.82
2016-03-25T03:52:04.415Z,6.74
2016-03-25T03:53:04.448Z,6.89
2016-03-25T03:54:04.421Z,6.87
2016-03-25T03:55:04.423Z,6.89
2016-03-25T03:56:04.394Z,6.89
2016-03-25T03:57:04.398Z,6.85
2016-03-25T03:58:04.415Z,6.92
2016-03-25T03:59:04.372Z,6.85
2016-03-25T04:00:04.405Z,6.92
2016-03-25T04:01:04.408Z,6.93
2016-03-25T04:02:04.411Z,6.96
2016-03-25T04:03:04.382Z,6.95
2016-03-25T04:04:04.385Z,6.87
2016-03-25T04:05:04.403Z,6.89
2016-03-25T04:06:04.359Z,6.88
2016-03-25T04:07:04.377Z,6.85
2016-03-25T04:08:04.395Z,6.97
2016-03-25T04:09:04.399Z,7
2016-03-25T04:10:04.416Z,7
2016-03-25T04:11:04.372Z,7.03
2016-03-25T04:12:04.360Z,7.07
2016-03-25T04:13:04.362Z,7.1
2016-03-25T04:14:04.380Z,7.07
2016-03-25T04:15:04.352Z,7.14
2016-03-25T04:16:04.354Z,7.18
2016-03-25T04:17:04.357Z,7.15
2016-03-25T04:18:04.344Z,7.2
2016-03-25T04:19:04.347Z,7.21
2016-03-25T04:20:04.349Z,7.31
2016-03-25T04:21:04.352Z,7.23
2016-03-25T04:22:04.354Z,7.29
2016-03-25T04:23:04.343Z,7.28
2016-03-25T04:24:04.329Z,7.32
2016-03-25T04:25:04.362Z,7.31
2016-03-25T04:26:04.365Z,7.35
2016-03-25T04:27:04.353Z,7.35
2016-03-25T04:28:04.340Z,7.31
2016-03-25T04:29:04.327Z,7.39
2016-03-25T04:30:04.345Z,7.33
2016-03-25T04:31:04.317Z,7.35
2016-03-25T04:32:04.366Z,7.39
2016-03-25T04:33:04.322Z,7.4
2016-03-25T04:34:04.341Z,7.4
2016-03-25T04:35:04.343Z,7.39
2016-03-25T04:36:04.315Z,7.45
2016-03-25T04:37:04.333Z,7.4
2016-03-25T04:38:04.335Z,7.36
2016-03-25T04:39:04.323Z,7.43
2016-03-25T04:40:04.325Z,7.38
2016-03-25T04:41:04.343Z,7.45
2016-03-25T04:42:04.315Z,7.4
2016-03-25T04:43:04.333Z,7.45
2016-03-25T04:44:04.321Z,7.43
2016-03-25T04:45:04.324Z,7.45
2016-03-25T04:46:04.326Z,7.38
2016-03-25T04:47:04.312Z,7.43
2016-03-25T04:48:04.316Z,7.4
2016-03-25T04:49:04.302Z,7.39
2016-03-25T04:50:04.320Z,7.36
2016-03-25T04:51:04.293Z,7.39
2016-03-25T04:52:04.342Z,7.42
2016-03-25T04:53:04.313Z,7.39
2016-03-25T04:54:04.301Z,7.33
2016-03-25T04:55:04.318Z,7.38
2016-03-25T04:56:04.321Z,7.35
2016-03-25T04:57:04.308Z,7.32
2016-03-25T04:58:04.296Z,7.39
2016-03-25T04:59:04.314Z,7.31
2016-03-25T05:00:04.317Z,7.32
2016-03-25T05:01:04.335Z,7.25
2016-03-25T05:02:04.306Z,7.35
2016-03-25T05:03:04.294Z,7.36
2016-03-25T05:04:04.311Z,7.33
2016-03-25T05:05:04.299Z,7.39
2016-03-25T05:06:04.285Z,7.38
2016-03-25T05:07:04.304Z,7.32
2016-03-25T05:08:04.324Z,7.32
2016-03-25T05:09:04.296Z,7.35
2016-03-25T05:10:04.282Z,7.4
2016-03-25T05:11:04.285Z,7.36
2016-03-25T05:12:04.272Z,7.25
2016-03-25T05:13:04.290Z,7.32
2016-03-25T05:14:04.262Z,7.36
2016-03-25T05:15:04.280Z,7.32
2016-03-25T05:16:04.267Z,7.29
2016-03-25T05:17:04.285Z,7.31
2016-03-25T05:18:04.288Z,7.32
2016-03-25T05:19:04.275Z,7.28
2016-03-25T05:20:04.277Z,7.32
2016-03-25T05:21:04.296Z,7.28
2016-03-25T05:22:04.283Z,7.31
2016-03-25T05:23:04.254Z,7.24
2016-03-25T05:24:04.288Z,7.21
2016-03-25T05:25:04.244Z,7.24
2016-03-25T05:26:04.263Z,7.28
2016-03-25T05:27:04.499Z,7.24
2016-03-25T05:28:04.268Z,7.29
2016-03-25T05:29:04.255Z,7.28
2016-03-25T05:30:04.274Z,7.32
2016-03-25T05:31:04.244Z,7.21
2016-03-25T05:32:04.247Z,7.31
2016-03-25T05:33:04.250Z,7.29
2016-03-25T05:34:04.252Z,7.36
2016-03-25T05:35:04.255Z,7.29
2016-03-25T05:36:04.242Z,7.31
2016-03-25T05:37:04.246Z,7.32
2016-03-25T05:38:04.232Z,7.28
2016-03-25T05:39:04.251Z,7.29
2016-03-25T05:40:04.254Z,7.24
2016-03-25T05:41:04.256Z,7.23
2016-03-25T05:42:04.243Z,7.17
2016-03-25T05:43:04.246Z,7.23
2016-03-25T05:44:04.245Z,7.2
2016-03-25T05:45:04.233Z,7.15
2016-03-25T05:46:04.251Z,7.1
2016-03-25T05:47:04.238Z,7.13
2016-03-25T05:48:04.225Z,7.1
2016-03-25T05:49:04.211Z,7.13
2016-03-25T05:50:04.231Z,7.11
2016-03-25T05:51:04.217Z,7.11
2016-03-25T05:52:04.235Z,7.11
2016-03-25T05:53:04.239Z,7.17
2016-03-25T05:54:04.210Z,7.11
2016-03-25T05:55:04.243Z,7.18
2016-03-25T05:56:04.231Z,7.23
2016-03-25T05:57:04.233Z,7.2
2016-03-25T05:58:04.210Z,7.2
2016-03-25T05:59:04.244Z,7.28
2016-03-25T06:00:04.215Z,7.17
2016-03-25T06:01:04.201Z,7.21
2016-03-25T06:02:04.205Z,7.23
2016-03-25T06:03:04.207Z,7.29
2016-03-25T06:04:04.210Z,7.21
2016-03-25T06:05:04.229Z,7.29
2016-03-25T06:06:04.075Z,7.28
2016-03-25T06:07:04.187Z,7.24
2016-03-25T06:08:04.206Z,7.23
2016-03-25T06:09:04.192Z,7.25
2016-03-25T06:10:04.226Z,7.24
2016-03-25T06:11:04.183Z,7.29
2016-03-25T06:12:04.216Z,7.31
2016-03-25T06:13:04.204Z,7.29
2016-03-25T06:14:04.222Z,7.25
2016-03-25T06:15:04.193Z,7.31
2016-03-25T06:16:04.212Z,7.31
2016-03-25T06:17:04.199Z,7.31
2016-03-25T06:18:04.185Z,7.33
2016-03-25T06:19:04.219Z,7.31
2016-03-25T06:20:04.191Z,7.38
2016-03-25T06:21:04.210Z,7.38
2016-03-25T06:22:04.196Z,7.31
2016-03-25T06:23:04.183Z,7.35
2016-03-25T06:24:04.202Z,7.38
2016-03-25T06:25:04.204Z,7.43
2016-03-25T06:26:04.176Z,7.35
2016-03-25T06:27:04.210Z,7.36
2016-03-25T06:28:04.181Z,7.35
2016-03-25T06:29:04.168Z,7.23
2016-03-25T06:30:04.171Z,7.32
2016-03-25T06:31:04.173Z,7.39
2016-03-25T06:32:04.176Z,7.36
2016-03-25T06:33:04.163Z,7.4
2016-03-25T06:34:04.166Z,7.35
2016-03-25T06:35:04.044Z,7.36
2016-03-25T06:36:04.187Z,7.33
2016-03-25T06:37:04.190Z,7.36
2016-03-25T06:38:04.162Z,7.36
2016-03-25T06:39:04.179Z,7.39
2016-03-25T06:40:04.166Z,7.38
2016-03-25T06:41:04.170Z,7.38
2016-03-25T06:42:04.187Z,7.39
2016-03-25T06:43:04.158Z,7.5
2016-03-25T06:44:04.178Z,7.45
2016-03-25T06:45:04.149Z,7.51
2016-03-25T06:46:04.167Z,7.57
2016-03-25T06:47:04.155Z,7.6
2016-03-25T06:48:04.141Z,7.61
2016-03-25T06:49:04.160Z,7.73
2016-03-25T06:50:04.022Z,7.79
2016-03-25T06:51:04.180Z,7.77
2016-03-25T06:52:04.152Z,7.76
2016-03-25T06:53:04.155Z,7.79
2016-03-25T06:54:04.141Z,7.8
2016-03-25T06:55:04.177Z,7.85
2016-03-25T06:56:04.147Z,7.83
2016-03-25T06:57:04.165Z,7.8
2016-03-25T06:58:04.152Z,7.82
2016-03-25T06:59:04.171Z,7.88
2016-03-25T07:00:04.142Z,7.9
2016-03-25T07:01:04.176Z,7.97
2016-03-25T07:02:04.148Z,7.91
2016-03-25T07:03:04.151Z,8
2016-03-25T07:04:04.168Z,8.05
2016-03-25T07:05:04.140Z,8.19
2016-03-25T07:06:04.173Z,8.19
2016-03-25T07:07:04.129Z,8.2
2016-03-25T07:08:04.132Z,8.41
2016-03-25T07:09:04.135Z,8.37
2016-03-25T07:10:04.169Z,8.38
2016-03-25T07:11:04.141Z,8.37
2016-03-25T07:12:04.143Z,8.58
2016-03-25T07:13:04.177Z,8.52
2016-03-25T07:14:04.133Z,8.6
2016-03-25T07:15:04.136Z,8.55
2016-03-25T07:16:04.138Z,8.67
2016-03-25T07:17:04.172Z,8.63
2016-03-25T07:18:04.144Z,8.66
2016-03-25T07:19:04.161Z,8.61
2016-03-25T07:20:04.150Z,8.63
2016-03-25T07:21:04.136Z,8.6
2016-03-25T07:22:04.154Z,8.78
2016-03-25T07:23:04.173Z,8.64
2016-03-25T07:24:04.160Z,8.7
2016-03-25T07:25:04.162Z,8.71
2016-03-25T07:26:04.399Z,8.71
2016-03-25T07:27:04.152Z,8.74
2016-03-25T07:28:04.171Z,8.79
2016-03-25T07:29:04.143Z,8.88
2016-03-25T07:30:04.161Z,8.92
2016-03-25T07:31:04.194Z,8.84
2016-03-25T07:32:04.151Z,8.99
2016-03-25T07:33:04.168Z,8.95
2016-03-25T07:34:04.171Z,8.92
2016-03-25T07:35:04.158Z,8.89
2016-03-25T07:36:04.177Z,8.91
2016-03-25T07:37:04.164Z,8.74
2016-03-25T07:38:04.167Z,8.71
2016-03-25T07:39:04.170Z,8.58
2016-03-25T07:40:04.156Z,8.61
2016-03-25T07:41:04.174Z,8.51
2016-03-25T07:42:04.178Z,8.46
2016-03-25T07:43:04.148Z,8.55
2016-03-25T07:44:04.167Z,8.51
2016-03-25T07:45:04.170Z,8.52
2016-03-25T07:46:04.173Z,8.51
2016-03-25T07:47:04.191Z,8.44
2016-03-25T07:48:04.178Z,8.52
2016-03-25T07:49:04.165Z,8.48
2016-03-25T07:50:04.183Z,8.48
2016-03-25T07:51:04.170Z,8.41
2016-03-25T07:52:04.188Z,8.42
2016-03-25T07:53:04.191Z,8.44
2016-03-25T07:54:04.163Z,8.36
2016-03-25T07:55:04.181Z,8.3
2016-03-25T07:56:04.199Z,8.36
2016-03-25T07:57:04.185Z,8.3
2016-03-25T07:58:04.173Z,8.3
2016-03-25T07:59:04.177Z,8.26
2016-03-25T08:00:04.179Z,8.26
2016-03-25T08:01:04.165Z,8.2
2016-03-25T08:02:04.185Z,8.18
2016-03-25T08:03:04.155Z,8.1
2016-03-25T08:04:04.189Z,8.3
2016-03-25T08:05:04.160Z,8.28
2016-03-25T08:06:04.538Z,8.41
2016-03-25T08:07:04.057Z,8.38
2016-03-25T08:08:04.168Z,8.41
2016-03-25T08:09:04.250Z,8.48
2016-03-25T08:10:04.190Z,8.42
2016-03-25T08:11:04.176Z,8.41
2016-03-25T08:12:04.179Z,8.42
2016-03-25T08:13:04.011Z,8.42
2016-03-25T08:14:04.184Z,8.41
2016-03-25T08:15:04.172Z,8.38
2016-03-25T08:16:04.190Z,8.38
2016-03-25T08:17:04.193Z,8.45
2016-03-25T08:18:04.164Z,8.3
2016-03-25T08:19:04.152Z,8.24
2016-03-25T08:20:04.170Z,8.36
2016-03-25T08:21:04.188Z,8.45
2016-03-25T08:22:04.175Z,8.49
2016-03-25T08:23:04.163Z,8.41
2016-03-25T08:24:04.165Z,8.49
2016-03-25T08:25:04.183Z,8.61
2016-03-25T08:26:04.171Z,8.67
2016-03-25T08:27:04.173Z,8.64
2016-03-25T08:28:04.191Z,8.69
2016-03-25T08:29:04.179Z,8.89
2016-03-25T08:30:04.181Z,9
2016-03-25T08:31:05.528Z,8.97
2016-03-25T08:32:04.171Z,9.04
2016-03-25T08:33:04.174Z,9.03
2016-03-25T08:34:04.193Z,9.1
2016-03-25T08:35:04.163Z,9.06
2016-03-25T08:36:04.182Z,9.18
2016-03-25T08:37:04.184Z,9.02
2016-03-25T08:38:04.171Z,9
2016-03-25T08:39:04.236Z,9.08
2016-03-25T08:40:04.192Z,9.02
2016-03-25T08:41:04.179Z,9.14
2016-03-25T08:42:04.214Z,9.11
2016-03-25T08:43:04.185Z,9.08
2016-03-25T08:44:04.172Z,9.1
2016-03-25T08:45:04.175Z,8.97
2016-03-25T08:46:04.178Z,9.11
2016-03-25T08:47:04.211Z,9.04
2016-03-25T08:48:04.183Z,9.1
2016-03-25T08:49:04.186Z,9.04
2016-03-25T08:50:04.189Z,9.1
2016-03-25T08:51:04.192Z,9.04
2016-03-25T08:52:04.209Z,9.19
2016-03-25T08:53:04.181Z,9.29
2016-03-25T08:54:04.355Z,9.43
2016-03-25T08:55:04.202Z,9.48
2016-03-25T08:56:04.205Z,9.43
2016-03-25T08:57:04.207Z,9.61
2016-03-25T08:58:04.178Z,9.62
2016-03-25T08:59:04.196Z,9.66
2016-03-25T09:00:04.199Z,9.68
2016-03-25T09:01:04.186Z,9.76
2016-03-25T09:02:04.205Z,9.65
2016-03-25T09:03:04.192Z,9.64
2016-03-25T09:04:04.210Z,9.65
2016-03-25T09:05:04.212Z,9.65
2016-03-25T09:06:04.199Z,9.68
2016-03-25T09:07:04.218Z,9.64
2016-03-25T09:08:04.204Z,9.65
2016-03-25T09:09:04.301Z,9.79
2016-03-25T09:10:04.226Z,9.86
2016-03-25T09:11:04.213Z,9.87
2016-03-25T09:12:04.231Z,9.92
2016-03-25T09:13:04.203Z,9.87
2016-03-25T09:14:04.221Z,9.83
2016-03-25T09:15:04.224Z,9.73
2016-03-25T09:16:04.211Z,9.61
2016-03-25T09:17:04.229Z,9.54
2016-03-25T09:18:04.232Z,9.54
2016-03-25T09:19:04.220Z,9.55
2016-03-25T09:20:04.237Z,9.48
2016-03-25T09:21:04.225Z,9.4
2016-03-25T09:22:04.275Z,9.4
2016-03-25T09:23:04.262Z,9.37
2016-03-25T09:24:04.217Z,9.46
2016-03-25T09:25:04.251Z,9.34
2016-03-25T09:26:04.239Z,9.4
2016-03-25T09:27:04.241Z,9.44
2016-03-25T09:28:04.259Z,9.31
2016-03-25T09:29:04.247Z,9.18
2016-03-25T09:30:04.233Z,9.13
2016-03-25T09:31:04.252Z,9.08
2016-03-25T09:32:04.239Z,9.14
2016-03-25T09:33:04.241Z,9.14
2016-03-25T09:34:04.275Z,9.13
2016-03-25T09:35:04.263Z,9.18
2016-03-25T09:36:04.249Z,9.08
2016-03-25T09:37:04.252Z,9.1
2016-03-25T09:38:04.240Z,9.11
2016-03-25T09:39:04.273Z,9.16
2016-03-25T09:40:04.260Z,9.23
2016-03-25T09:41:04.247Z,9.21
2016-03-25T09:42:04.282Z,9.23
2016-03-25T09:43:04.237Z,9.36
2016-03-25T09:44:04.271Z,9.32
2016-03-25T09:45:04.243Z,9.25
2016-03-25T09:46:04.276Z,9.34
2016-03-25T09:47:04.231Z,9.36
2016-03-25T09:48:04.266Z,9.31
2016-03-25T09:49:04.253Z,9.34
2016-03-25T09:50:04.272Z,9.28
2016-03-25T09:51:04.242Z,9.44
2016-03-25T09:52:04.246Z,9.41
2016-03-25T09:53:04.248Z,9.55
2016-03-25T09:54:04.250Z,9.58
2016-03-25T09:55:04.270Z,9.64
2016-03-25T09:56:04.241Z,9.56
2016-03-25T09:57:04.291Z,9.54
2016-03-25T09:58:04.261Z,9.55
2016-03-25T09:59:04.265Z,9.5
2016-03-25T10:00:04.267Z,9.46
2016-03-25T10:01:04.255Z,9.46
2016-03-25T10:02:04.258Z,9.41
2016-03-25T10:03:04.260Z,9.25
2016-03-25T10:04:04.278Z,9.14
2016-03-25T10:05:04.266Z,9.14
2016-03-25T10:06:04.252Z,9.04
2016-03-25T10:07:04.271Z,9.13
2016-03-25T10:08:04.257Z,9.14
2016-03-25T10:09:04.260Z,9.06
2016-03-25T10:10:04.279Z,9.11
2016-03-25T10:11:04.265Z,9.03
2016-03-25T10:12:04.284Z,9.03
2016-03-25T10:13:04.271Z,9.02
2016-03-25T10:14:04.274Z,8.95
2016-03-25T10:15:04.276Z,8.97
2016-03-25T10:16:04.262Z,9.06
2016-03-25T10:17:04.266Z,8.99
2016-03-25T10:18:04.253Z,9.06
2016-03-25T10:19:04.271Z,9.06
2016-03-25T10:20:04.290Z,9.06
2016-03-25T10:21:04.309Z,9.08
2016-03-25T10:22:04.279Z,9.03
2016-03-25T10:23:04.281Z,9.03
2016-03-25T10:24:04.270Z,9
2016-03-25T10:25:04.303Z,9.03
2016-03-25T10:26:04.259Z,9.04
2016-03-25T10:27:04.292Z,9
2016-03-25T10:28:04.295Z,9.02
2016-03-25T10:29:04.264Z,9.08
2016-03-25T10:30:04.282Z,9.13
2016-03-25T10:31:04.285Z,9.25
2016-03-25T10:32:04.272Z,9.34
2016-03-25T10:33:04.275Z,9.4
2016-03-25T10:34:04.308Z,9.31
2016-03-25T10:35:04.265Z,9.37
2016-03-25T10:36:04.268Z,9.4
2016-03-25T10:37:04.285Z,9.39
2016-03-25T10:38:04.382Z,9.47
2016-03-25T10:39:04.369Z,9.32
2016-03-25T10:40:04.278Z,9.37
2016-03-25T10:41:04.296Z,9.34
2016-03-25T10:42:04.299Z,9.43
2016-03-25T10:43:04.286Z,9.58
2016-03-25T10:44:04.289Z,9.51
2016-03-25T10:45:04.292Z,9.55
2016-03-25T10:46:04.278Z,9.56
2016-03-25T10:47:04.265Z,9.62
2016-03-25T10:48:04.300Z,9.55
2016-03-25T10:49:04.318Z,9.59
2016-03-25T10:50:04.305Z,9.64
2016-03-25T10:51:04.308Z,9.61
2016-03-25T10:52:04.311Z,9.64
2016-03-25T10:53:04.281Z,9.64
2016-03-25T10:54:04.284Z,9.73
2016-03-25T10:55:04.287Z,9.77
2016-03-25T10:56:04.305Z,9.83
2016-03-25T10:57:04.292Z,9.86
2016-03-25T10:58:04.311Z,9.84
2016-03-25T10:59:04.313Z,9.82
2016-03-25T11:00:04.144Z,9.89
2016-03-25T11:01:04.303Z,9.86
2016-03-25T11:02:04.290Z,9.92
2016-03-25T11:03:04.293Z,9.91
2016-03-25T11:04:04.311Z,10.04
2016-03-25T11:05:04.299Z,9.95
2016-03-25T11:06:04.301Z,9.98
2016-03-25T11:07:04.304Z,10.1
2016-03-25T11:08:04.354Z,10.1
2016-03-25T11:09:04.324Z,10.19
2016-03-25T11:10:04.327Z,10.17
2016-03-25T11:11:04.315Z,10.13
2016-03-25T11:12:04.332Z,10.02
2016-03-25T11:13:04.335Z,10.04
2016-03-25T11:14:04.338Z,9.98
2016-03-25T11:15:04.340Z,10.05
2016-03-25T11:16:04.328Z,9.91
2016-03-25T11:17:04.315Z,9.87
2016-03-25T11:18:04.348Z,9.76
2016-03-25T11:19:04.336Z,9.62
2016-03-25T11:20:04.354Z,9.54
2016-03-25T11:21:04.326Z,9.68
2016-03-25T11:22:04.344Z,9.55
2016-03-25T11:23:04.362Z,9.41
2016-03-25T11:24:04.397Z,9.41
2016-03-25T11:25:04.384Z,9.44
2016-03-25T11:26:04.199Z,9.41
2016-03-25T11:27:04.358Z,9.4
2016-03-25T11:28:04.361Z,9.54
2016-03-25T11:29:04.332Z,9.5
2016-03-25T11:30:04.335Z,9.55
2016-03-25T11:31:04.353Z,9.55
2016-03-25T11:32:04.340Z,9.54
2016-03-25T11:33:04.343Z,9.56
2016-03-25T11:34:04.345Z,9.37
2016-03-25T11:35:04.333Z,9.47
2016-03-25T11:36:04.351Z,9.48
2016-03-25T11:37:04.369Z,9.47
2016-03-25T11:38:04.341Z,9.36
2016-03-25T11:39:04.344Z,9.4
2016-03-25T11:40:04.362Z,9.36
2016-03-25T11:41:04.200Z,9.4
2016-03-25T11:42:04.226Z,9.44
2016-03-25T11:43:04.368Z,9.48
2016-03-25T11:44:09.482Z,9.36
2016-03-25T11:45:04.383Z,9.37
2016-03-25T11:46:04.339Z,9.41
2016-03-25T11:47:04.357Z,9.4
2016-03-25T11:48:04.376Z,9.4
2016-03-25T11:49:04.346Z,9.43
2016-03-25T11:50:04.349Z,9.47
2016-03-25T11:51:04.368Z,9.41
2016-03-25T11:52:04.370Z,9.54
2016-03-25T11:53:04.389Z,9.5
2016-03-25T11:54:04.359Z,9.58
2016-03-25T11:55:04.366Z,9.58
2016-03-25T11:56:04.328Z,9.55
2016-03-25T11:57:04.334Z,9.5
2016-03-25T11:58:04.325Z,9.64
2016-03-25T11:59:04.292Z,9.61
2016-03-25T12:00:04.307Z,9.55
2016-03-25T12:01:04.305Z,9.48
2016-03-25T12:02:04.288Z,9.4
2016-03-25T12:03:04.286Z,9.41
2016-03-25T12:04:04.318Z,9.41
2016-03-25T12:05:04.289Z,9.4
2016-03-25T12:06:04.291Z,9.51
2016-03-25T12:07:04.308Z,9.48
2016-03-25T12:08:04.294Z,9.44
2016-03-25T12:09:04.342Z,9.39
2016-03-25T12:10:04.329Z,9.32
2016-03-25T12:11:04.299Z,9.31
2016-03-25T12:12:07.160Z,9.25
2016-03-25T12:13:04.272Z,9.21
2016-03-25T12:14:04.290Z,9.19
2016-03-25T12:15:04.293Z,9.03
2016-03-25T12:16:04.280Z,8.89
2016-03-25T12:17:04.298Z,8.88
2016-03-25T12:18:04.333Z,8.88
2016-03-25T12:19:04.319Z,8.87
2016-03-25T12:20:04.306Z,8.88
2016-03-25T12:21:04.309Z,8.87
2016-03-25T12:22:04.296Z,8.82
2016-03-25T12:23:04.300Z,8.84
2016-03-25T12:24:04.317Z,8.74
2016-03-25T12:25:04.289Z,8.79
2016-03-25T12:26:04.307Z,8.79
2016-03-25T12:27:04.294Z,8.87
2016-03-25T12:28:04.296Z,8.92
2016-03-25T12:29:04.299Z,8.89
2016-03-25T12:30:04.302Z,9
2016-03-25T12:31:04.304Z,9.04
2016-03-25T12:32:04.308Z,8.99
2016-03-25T12:33:04.310Z,9
2016-03-25T12:34:04.296Z,9.08
2016-03-25T12:35:59.834Z,8.99
2016-03-25T12:36:59.790Z,8.97
2016-03-25T12:37:59.807Z,8.94
2016-03-25T12:38:59.826Z,8.99
2016-03-25T12:39:59.845Z,8.97
2016-03-25T12:40:59.816Z,8.88
2016-03-25T12:41:59.818Z,8.91
2016-03-25T12:42:59.821Z,8.89
2016-03-25T12:43:59.824Z,8.84
2016-03-25T12:44:59.811Z,8.88
2016-03-25T12:45:59.829Z,8.88
2016-03-25T12:46:59.816Z,8.89
2016-03-25T12:47:59.835Z,8.87
2016-03-25T12:48:59.822Z,8.82
2016-03-25T12:49:59.825Z,8.92
2016-03-25T12:50:59.827Z,8.87
2016-03-25T12:51:59.814Z,8.88
2016-03-25T12:52:59.833Z,8.87
2016-03-25T12:53:59.819Z,8.87
2016-03-25T12:54:59.072Z,8.88
2016-03-25T12:55:59.794Z,8.88
2016-03-25T12:56:59.813Z,8.91
2016-03-25T12:57:59.816Z,8.92
2016-03-25T12:58:59.802Z,8.87
2016-03-25T12:59:59.852Z,8.91
2016-03-25T13:00:59.838Z,8.82
2016-03-25T13:01:59.841Z,8.71
2016-03-25T13:02:59.844Z,8.7
2016-03-25T13:03:59.815Z,8.73
2016-03-25T13:04:59.865Z,8.71
2016-03-25T13:05:59.805Z,8.74
2016-03-25T13:06:59.682Z,8.71
2016-03-25T13:07:59.857Z,8.74
2016-03-25T13:08:59.829Z,8.66
2016-03-25T13:09:59.723Z,8.73
2016-03-25T13:10:59.834Z,8.79
2016-03-25T13:11:59.806Z,8.69
2016-03-25T13:12:59.808Z,8.85
2016-03-25T13:13:59.812Z,8.81
2016-03-25T13:14:59.845Z,8.82
2016-03-25T13:15:59.832Z,8.91
2016-03-25T13:16:59.835Z,8.84
2016-03-25T13:17:59.822Z,8.81
2016-03-25T13:18:59.872Z,8.87
2016-03-25T13:19:59.827Z,8.85
2016-03-25T13:20:59.814Z,8.87
2016-03-25T13:21:59.833Z,8.84
2016-03-25T13:22:59.836Z,8.76